createdAt,value
2023-03-20T00:01:12.114Z,0
2023-03-20T00:04:37.381Z,0
2023-03-20T00:08:02.506Z,0
2023-03-20T00:11:27.724Z,0
2023-03-20T00:14:52.978Z,0
2023-03-20T00:18:18.168Z,0
2023-03-20T00:21:43.374Z,0
2023-03-20T00:25:08.582Z,0
2023-03-20T00:28:33.781Z,0
2023-03-20T00:31:59.009Z,0
2023-03-20T00:35:24.177Z,0
2023-03-20T00:38:49.373Z,0
2023-03-20T00:42:14.567Z,0
2023-03-20T00:45:39.783Z,0
2023-03-20T00:49:04.991Z,0
2023-03-20T00:52:30.200Z,0
2023-03-20T00:55:55.361Z,0
2023-03-20T00:59:20.585Z,0
2023-03-20T01:02:45.778Z,0
2023-03-20T01:06:11.019Z,0
2023-03-20T01:09:36.202Z,0
2023-03-20T01:13:01.445Z,0
2023-03-20T01:16:26.694Z,0
2023-03-20T01:19:51.851Z,0
2023-03-20T01:23:17.069Z,0
2023-03-20T01:26:42.271Z,0
2023-03-20T01:30:07.442Z,0
2023-03-20T01:33:32.656Z,0
2023-03-20T01:36:57.870Z,0
2023-03-20T01:40:23.080Z,0
2023-03-20T01:43:48.260Z,0
2023-03-20T01:47:13.453Z,0
2023-03-20T01:50:38.642Z,0
2023-03-20T01:54:03.866Z,0
2023-03-20T01:57:29.093Z,0
2023-03-20T02:00:54.290Z,0
2023-03-20T02:04:19.493Z,0
2023-03-20T02:07:44.718Z,0
2023-03-20T02:11:09.925Z,0
2023-03-20T02:14:35.144Z,0
2023-03-20T02:18:00.334Z,0
2023-03-20T02:21:25.538Z,0
2023-03-20T02:24:50.745Z,0
2023-03-20T02:28:15.925Z,0
2023-03-20T02:31:41.169Z,0
2023-03-20T02:35:06.374Z,0
2023-03-20T02:38:31.566Z,0
2023-03-20T02:41:56.770Z,0
2023-03-20T02:45:21.972Z,0
2023-03-20T02:48:47.197Z,0
2023-03-20T02:52:12.387Z,0
2023-03-20T02:55:37.572Z,0
2023-03-20T02:59:02.788Z,0
2023-03-20T03:02:28.068Z,0
2023-03-20T03:05:53.231Z,0
2023-03-20T03:09:18.435Z,0
2023-03-20T03:12:43.623Z,0
2023-03-20T03:16:08.858Z,0
2023-03-20T03:19:34.023Z,0
2023-03-20T03:22:59.272Z,0
2023-03-20T03:26:24.446Z,0
2023-03-20T03:29:49.643Z,0
2023-03-20T03:33:14.912Z,0
2023-03-20T03:36:40.076Z,0
2023-03-20T03:40:05.327Z,0
2023-03-20T03:43:30.527Z,0
2023-03-20T03:46:55.797Z,0
2023-03-20T03:50:20.949Z,0
2023-03-20T03:53:46.151Z,0
2023-03-20T03:57:11.373Z,0
2023-03-20T04:00:36.556Z,0
2023-03-20T04:04:02.805Z,0
2023-03-20T04:07:26.952Z,0
2023-03-20T04:10:52.146Z,0
2023-03-20T04:14:17.370Z,0
2023-03-20T04:17:42.579Z,0
2023-03-20T04:21:07.820Z,0
2023-03-20T04:24:33.060Z,0
2023-03-20T04:27:58.316Z,0
2023-03-20T04:31:23.743Z,0
2023-03-20T04:34:48.922Z,0
2023-03-20T04:38:14.185Z,0
2023-03-20T04:41:39.401Z,0
2023-03-20T04:45:04.705Z,0
2023-03-20T04:48:30.367Z,0
2023-03-20T04:51:55.552Z,0
2023-03-20T04:55:20.783Z,0
2023-03-20T04:58:46.687Z,0
2023-03-20T05:02:11.931Z,0
2023-03-20T05:05:37.400Z,0
2023-03-20T05:09:02.366Z,0
2023-03-20T05:12:27.605Z,0
2023-03-20T05:15:52.816Z,0
2023-03-20T05:19:18.037Z,0
2023-03-20T05:22:43.271Z,0
2023-03-20T05:26:08.438Z,0
2023-03-20T05:29:33.654Z,0
2023-03-20T05:32:58.914Z,0
2023-03-20T05:36:24.115Z,0
2023-03-20T05:39:49.335Z,0
2023-03-20T05:43:14.514Z,0
2023-03-20T05:46:39.712Z,0
2023-03-20T05:50:04.916Z,0
2023-03-20T05:53:30.184Z,0
2023-03-20T05:56:57.905Z,0
2023-03-20T06:00:20.622Z,0
2023-03-20T06:03:45.905Z,0
2023-03-20T06:07:11.144Z,0
2023-03-20T06:10:36.393Z,0
2023-03-20T06:14:01.682Z,0
2023-03-20T06:17:26.915Z,0
2023-03-20T06:20:52.163Z,0
2023-03-20T06:24:17.441Z,0
2023-03-20T06:27:42.737Z,0
2023-03-20T06:31:07.984Z,0
2023-03-20T06:34:33.149Z,0
2023-03-20T06:37:58.322Z,0
2023-03-20T06:41:33.600Z,6
2023-03-20T06:44:49.016Z,6
2023-03-20T06:48:14.223Z,6
2023-03-20T06:51:39.430Z,6
2023-03-20T06:55:04.624Z,6
2023-03-20T06:58:29.853Z,6
2023-03-20T07:01:55.342Z,6
2023-03-20T07:05:20.599Z,6
2023-03-20T07:08:45.698Z,6
2023-03-20T07:12:10.959Z,11
2023-03-20T07:15:36.441Z,11
2023-03-20T07:19:01.419Z,11
2023-03-20T07:22:26.733Z,11
2023-03-20T07:25:51.957Z,11
2023-03-20T07:29:17.183Z,11
2023-03-20T07:32:42.416Z,17
2023-03-20T07:36:07.731Z,17
2023-03-20T07:39:32.837Z,17
2023-03-20T07:42:58.037Z,17
2023-03-20T07:46:23.410Z,17
2023-03-20T07:49:48.492Z,17
2023-03-20T07:53:13.693Z,17
2023-03-20T07:56:38.918Z,17
2023-03-20T08:00:04.094Z,17
2023-03-20T08:03:29.414Z,23
2023-03-20T08:06:54.516Z,23
2023-03-20T08:10:19.758Z,17
2023-03-20T08:13:44.953Z,23
2023-03-20T08:17:15.174Z,23
2023-03-20T08:20:35.387Z,23
2023-03-20T08:24:00.612Z,28
2023-03-20T08:27:25.782Z,28
2023-03-20T08:30:51.044Z,28
2023-03-20T08:34:16.204Z,28
2023-03-20T08:37:41.444Z,28
2023-03-20T08:41:06.668Z,28
2023-03-20T08:44:31.885Z,34
2023-03-20T08:47:57.165Z,28
2023-03-20T08:51:22.361Z,34
2023-03-20T08:54:47.757Z,28
2023-03-20T08:58:12.802Z,23
2023-03-20T09:01:48.577Z,17
2023-03-20T09:05:03.267Z,17
2023-03-20T09:08:28.446Z,23
2023-03-20T09:11:53.668Z,17
2023-03-20T09:15:18.900Z,23
2023-03-20T09:18:44.125Z,23
2023-03-20T09:22:09.366Z,28
2023-03-20T09:25:34.899Z,28
2023-03-20T09:28:59.781Z,17
2023-03-20T09:32:25.003Z,23
2023-03-20T09:35:50.261Z,17
2023-03-20T09:39:15.526Z,17
2023-03-20T09:42:40.745Z,17
2023-03-20T09:46:06.026Z,17
2023-03-20T09:49:31.192Z,11
2023-03-20T09:52:56.475Z,11
2023-03-20T09:56:21.737Z,17
2023-03-20T09:59:46.900Z,17
2023-03-20T10:03:12.188Z,23
2023-03-20T10:06:37.457Z,23
2023-03-20T10:10:02.646Z,28
2023-03-20T10:13:27.961Z,23
2023-03-20T10:16:53.161Z,23
2023-03-20T10:20:18.386Z,11
2023-03-20T10:23:43.633Z,17
2023-03-20T10:27:08.857Z,11
2023-03-20T10:30:34.401Z,11
2023-03-20T10:33:59.312Z,11
2023-03-20T10:37:24.572Z,11
2023-03-20T10:40:49.817Z,11
2023-03-20T10:44:15.014Z,11
2023-03-20T10:47:40.260Z,11
2023-03-20T10:51:05.412Z,17
2023-03-20T10:54:30.777Z,17
2023-03-20T10:57:56.049Z,23
2023-03-20T11:01:21.461Z,11
2023-03-20T11:04:46.644Z,17
2023-03-20T11:08:11.827Z,11
2023-03-20T11:11:37.041Z,11
2023-03-20T11:15:02.232Z,11
2023-03-20T11:18:27.435Z,11
2023-03-20T11:21:52.692Z,11
2023-03-20T11:25:17.944Z,11
2023-03-20T11:28:43.148Z,17
2023-03-20T11:32:08.450Z,17
2023-03-20T11:35:33.658Z,17
2023-03-20T11:38:58.929Z,11
2023-03-20T11:42:24.026Z,17
2023-03-20T11:45:49.324Z,11
2023-03-20T11:49:14.502Z,11
2023-03-20T11:52:39.769Z,11
2023-03-20T11:56:04.928Z,23
2023-03-20T11:59:30.124Z,23
2023-03-20T12:02:55.412Z,17
2023-03-20T12:06:20.564Z,23
2023-03-20T12:09:45.755Z,28
2023-03-20T12:13:10.967Z,23
2023-03-20T12:16:36.165Z,17
2023-03-20T12:20:01.376Z,17
2023-03-20T12:23:26.599Z,17
2023-03-20T12:26:51.832Z,34
2023-03-20T12:30:17.174Z,34
2023-03-20T12:33:42.252Z,28
2023-03-20T12:37:07.489Z,39
2023-03-20T12:40:32.663Z,23
2023-03-20T12:43:57.934Z,28
2023-03-20T12:47:24.113Z,23
2023-03-20T12:50:50.029Z,17
2023-03-20T12:54:15.226Z,11
2023-03-20T12:57:40.449Z,17
2023-03-20T13:01:05.681Z,28
2023-03-20T13:04:30.957Z,23
2023-03-20T13:07:56.145Z,23
2023-03-20T13:11:21.604Z,23
2023-03-20T13:14:46.799Z,11
2023-03-20T13:18:12.006Z,11
2023-03-20T13:21:38.328Z,11
2023-03-20T13:25:02.469Z,11
2023-03-20T13:28:27.712Z,11
2023-03-20T13:31:53.081Z,11
2023-03-20T13:35:18.133Z,11
2023-03-20T13:38:43.463Z,17
2023-03-20T13:42:08.660Z,28
2023-03-20T13:45:33.901Z,17
2023-03-20T13:48:59.195Z,11
2023-03-20T13:52:24.404Z,11
2023-03-20T13:55:49.637Z,11
2023-03-20T13:59:14.802Z,11
2023-03-20T14:02:40.025Z,17
2023-03-20T14:06:05.221Z,17
2023-03-20T14:09:30.475Z,23
2023-03-20T14:12:55.702Z,23
2023-03-20T14:16:20.918Z,17
2023-03-20T14:19:46.147Z,23
2023-03-20T14:23:11.366Z,28
2023-03-20T14:26:36.632Z,23
2023-03-20T14:30:01.854Z,23
2023-03-20T14:33:27.119Z,17
2023-03-20T14:36:52.306Z,17
2023-03-20T14:40:17.508Z,17
2023-03-20T14:43:42.738Z,23
2023-03-20T14:47:07.970Z,23
2023-03-20T14:50:33.179Z,23
2023-03-20T14:53:58.390Z,23
2023-03-20T14:57:23.653Z,23
2023-03-20T15:00:48.895Z,23
2023-03-20T15:04:14.131Z,17
2023-03-20T15:41:15.820Z,0
2023-03-20T15:44:41.027Z,6
2023-03-20T15:48:06.276Z,6
2023-03-20T15:51:31.532Z,6
2023-03-20T15:54:56.736Z,6
2023-03-20T15:58:22.802Z,6
2023-03-20T16:01:48.047Z,6
2023-03-20T16:05:13.273Z,6
2023-03-20T16:08:38.501Z,6
2023-03-20T16:12:03.795Z,6
2023-03-20T16:15:29.012Z,6
2023-03-20T16:18:54.241Z,6
2023-03-20T16:22:19.459Z,6
2023-03-20T16:25:44.657Z,6
2023-03-20T16:29:09.860Z,0
2023-03-20T16:32:35.211Z,0
2023-03-20T16:36:00.449Z,0
2023-03-20T16:39:25.545Z,0
2023-03-20T16:42:50.740Z,0
2023-03-20T16:46:15.969Z,0
2023-03-20T16:49:41.193Z,0
2023-03-20T16:53:06.422Z,0
2023-03-20T16:56:31.663Z,0
2023-03-20T16:59:56.842Z,0
2023-03-20T17:03:22.107Z,0
2023-03-20T17:06:47.288Z,0
2023-03-20T17:10:12.456Z,0
2023-03-20T17:13:37.654Z,0
2023-03-20T17:17:02.893Z,0
2023-03-20T17:20:28.736Z,0
2023-03-20T17:23:53.940Z,0
2023-03-20T17:27:19.097Z,0
2023-03-20T17:30:44.296Z,0
2023-03-20T17:34:09.513Z,0
2023-03-20T17:37:35.476Z,0
2023-03-20T17:41:00.697Z,0
2023-03-20T17:44:25.910Z,0
2023-03-20T17:47:51.170Z,0
2023-03-20T17:51:16.401Z,0
2023-03-20T17:54:41.899Z,0
2023-03-20T17:58:07.166Z,0
2023-03-20T18:01:32.932Z,0
2023-03-20T18:04:57.549Z,0
2023-03-20T18:08:22.751Z,0
2023-03-20T18:11:47.983Z,0
2023-03-20T18:15:13.199Z,0
2023-03-20T18:18:38.425Z,0
2023-03-20T18:22:03.644Z,0
2023-03-20T18:25:29.225Z,0
2023-03-20T18:28:54.483Z,0
2023-03-20T18:32:19.888Z,0
2023-03-20T18:35:45.212Z,0
2023-03-20T18:39:10.301Z,0
2023-03-20T18:42:35.576Z,0
2023-03-20T18:46:00.931Z,0
2023-03-20T18:49:26.229Z,0
2023-03-20T18:52:51.424Z,0
2023-03-20T18:56:16.707Z,0
2023-03-20T18:59:42.015Z,0
2023-03-20T19:03:07.383Z,0
2023-03-20T19:06:32.729Z,0
2023-03-20T19:09:57.966Z,0
2023-03-20T19:13:23.311Z,0
2023-03-20T19:16:48.667Z,0
2023-03-20T19:20:13.939Z,0
2023-03-20T19:23:39.224Z,0
2023-03-20T19:27:04.424Z,0
2023-03-20T19:30:29.698Z,0
2023-03-20T19:33:54.952Z,0
2023-03-20T19:37:20.182Z,0
2023-03-20T19:40:45.503Z,0
2023-03-20T19:44:10.722Z,0
2023-03-20T19:47:36.135Z,0
2023-03-20T19:51:01.249Z,0
2023-03-20T19:54:26.492Z,0
2023-03-20T19:57:51.819Z,0
2023-03-20T20:01:17.779Z,0
2023-03-20T20:04:42.386Z,0
2023-03-20T20:08:23.911Z,0
2023-03-20T20:11:32.900Z,0
2023-03-20T20:14:58.173Z,0
2023-03-20T20:18:23.427Z,0
2023-03-20T20:22:19.345Z,0
2023-03-20T20:25:13.951Z,0
2023-03-20T20:28:39.180Z,0
2023-03-20T20:32:04.490Z,0
2023-03-20T20:35:47.639Z,0
2023-03-20T20:38:55.527Z,0
2023-03-20T20:42:20.354Z,0
2023-03-20T20:45:45.579Z,0
2023-03-20T20:49:18.992Z,0
2023-03-20T20:52:36.147Z,0
2023-03-20T20:56:01.317Z,0
2023-03-20T20:59:26.583Z,0
2023-03-20T21:02:51.861Z,0
2023-03-20T21:06:17.048Z,0
2023-03-20T21:09:42.245Z,0
2023-03-20T21:13:07.481Z,0
2023-03-20T21:16:32.744Z,0
2023-03-20T21:19:57.938Z,0
2023-03-20T21:23:23.251Z,0
2023-03-20T21:26:48.365Z,0
2023-03-20T21:30:13.583Z,0
2023-03-20T21:33:38.838Z,0
2023-03-20T21:37:49.530Z,0
2023-03-20T21:40:29.270Z,0
2023-03-20T21:43:54.451Z,0
2023-03-20T21:48:04.147Z,0
2023-03-20T21:58:17.321Z,0
2023-03-20T22:01:49.227Z,0
2023-03-20T22:08:36.708Z,0
2023-03-20T22:29:04.976Z,0
2023-03-20T22:35:54.869Z,0
2023-03-20T22:45:31.410Z,0
2023-03-20T22:48:53.746Z,0
2023-03-20T22:52:29.392Z,0
2023-03-20T22:55:44.170Z,0
2023-03-20T22:59:09.366Z,0
2023-03-20T23:02:34.615Z,0
2023-03-20T23:05:59.926Z,0
2023-03-20T23:09:25.184Z,0
2023-03-20T23:12:50.481Z,0
2023-03-20T23:16:15.821Z,0
2023-03-20T23:19:47.645Z,0
2023-03-20T23:23:06.381Z,0
2023-03-20T23:26:31.649Z,0
2023-03-20T23:29:56.943Z,0
2023-03-20T23:33:22.255Z,0
2023-03-20T23:36:47.579Z,0
2023-03-20T23:40:12.876Z,0
2023-03-20T23:43:38.144Z,0
2023-03-20T23:47:11.254Z,0
2023-03-20T23:50:36.821Z,0
2023-03-20T23:53:53.978Z,0
2023-03-20T23:57:19.281Z,0
